createdAt,value
2023-02-28T00:02:43.262Z,95883
2023-02-28T00:06:08.414Z,95879
2023-02-28T00:09:33.577Z,95876
2023-02-28T00:12:58.769Z,95881
2023-02-28T00:16:23.974Z,95879
2023-02-28T00:19:49.088Z,95875
2023-02-28T00:23:14.299Z,95883
2023-02-28T00:26:39.490Z,95875
2023-02-28T00:30:04.667Z,95878
2023-02-28T00:33:29.805Z,95877
2023-02-28T00:36:54.972Z,95877
2023-02-28T00:40:20.112Z,95875
2023-02-28T00:43:45.286Z,95877
2023-02-28T00:47:10.467Z,95878
2023-02-28T00:50:35.624Z,95879
2023-02-28T00:54:00.769Z,95878
2023-02-28T00:57:25.930Z,95885
2023-02-28T01:00:51.099Z,95878
2023-02-28T01:04:16.311Z,95874
2023-02-28T01:07:41.402Z,95877
2023-02-28T01:11:06.584Z,95879
2023-02-28T01:14:31.751Z,95882
2023-02-28T01:17:56.898Z,95875
2023-02-28T01:21:22.100Z,95872
2023-02-28T01:24:48.394Z,95874
2023-02-28T01:28:12.392Z,95864
2023-02-28T01:31:37.664Z,95869
2023-02-28T01:35:02.717Z,95859
2023-02-28T01:38:27.879Z,95858
2023-02-28T01:41:53.032Z,95854
2023-02-28T01:45:18.170Z,95854
2023-02-28T01:48:43.348Z,95847
2023-02-28T01:52:08.560Z,95844
2023-02-28T01:55:33.737Z,95842
2023-02-28T01:58:58.867Z,95840
2023-02-28T02:02:24.072Z,95840
2023-02-28T02:05:49.226Z,95838
2023-02-28T02:09:14.382Z,95835
2023-02-28T02:12:39.556Z,95829
2023-02-28T02:16:04.730Z,95824
2023-02-28T02:19:29.862Z,95820
2023-02-28T02:22:55.032Z,95826
2023-02-28T02:26:20.180Z,95823
2023-02-28T02:29:45.367Z,95833
2023-02-28T02:33:10.505Z,95830
2023-02-28T02:36:35.693Z,95830
2023-02-28T02:40:00.861Z,95833
2023-02-28T02:43:26.007Z,95826
2023-02-28T02:46:51.222Z,95827
2023-02-28T02:50:16.310Z,95825
2023-02-28T02:53:41.458Z,95822
2023-02-28T02:57:06.614Z,95819
2023-02-28T03:00:31.776Z,95828
2023-02-28T03:03:56.971Z,95824
2023-02-28T03:07:22.119Z,95834
2023-02-28T03:10:47.303Z,95831
2023-02-28T03:14:12.383Z,95828
2023-02-28T03:17:37.549Z,95821
2023-02-28T03:21:02.758Z,95825
2023-02-28T03:24:27.887Z,95822
2023-02-28T03:27:53.062Z,95830
2023-02-28T03:31:18.277Z,95830
2023-02-28T03:34:43.374Z,95834
2023-02-28T03:38:08.638Z,95828
2023-02-28T03:41:33.746Z,95832
2023-02-28T03:44:58.932Z,95833
2023-02-28T03:48:24.088Z,95835
2023-02-28T03:51:49.247Z,95833
2023-02-28T03:55:14.426Z,95835
2023-02-28T03:58:39.566Z,95824
2023-02-28T04:02:04.809Z,95836
2023-02-28T04:05:29.928Z,95840
2023-02-28T04:08:55.110Z,95841
2023-02-28T04:12:20.284Z,95841
2023-02-28T04:15:45.420Z,95846
2023-02-28T04:19:10.563Z,95846
2023-02-28T04:22:35.734Z,95842
2023-02-28T04:26:00.903Z,95840
2023-02-28T04:29:26.089Z,95844
2023-02-28T04:32:51.214Z,95839
2023-02-28T04:36:16.662Z,95847
2023-02-28T04:39:41.787Z,95844
2023-02-28T04:43:07.651Z,95847
2023-02-28T04:46:32.848Z,95853
2023-02-28T04:49:57.935Z,95847
2023-02-28T04:53:23.104Z,95852
2023-02-28T04:56:48.250Z,95853
2023-02-28T05:00:13.465Z,95850
2023-02-28T05:03:38.635Z,95849
2023-02-28T05:07:03.837Z,95848
2023-02-28T05:10:28.982Z,95854
2023-02-28T05:13:54.151Z,95853
2023-02-28T05:17:19.299Z,95858
2023-02-28T05:20:44.521Z,95864
2023-02-28T05:24:09.652Z,95864
2023-02-28T05:27:34.851Z,95871
2023-02-28T05:31:00.021Z,95863
2023-02-28T05:34:25.194Z,95869
2023-02-28T05:37:50.386Z,95870
2023-02-28T05:41:15.530Z,95871
2023-02-28T05:44:40.698Z,95873
2023-02-28T05:48:05.864Z,95866
2023-02-28T05:51:31.332Z,95867
2023-02-28T05:54:56.216Z,95870
2023-02-28T05:58:21.344Z,95873
2023-02-28T06:01:46.527Z,95877
2023-02-28T06:05:11.730Z,95875
2023-02-28T06:08:36.882Z,95877
2023-02-28T06:12:02.091Z,95884
2023-02-28T06:15:27.192Z,95888
2023-02-28T06:18:52.368Z,95891
2023-02-28T06:22:17.557Z,95887
2023-02-28T06:25:42.729Z,95890
2023-02-28T06:29:07.920Z,95894
2023-02-28T06:32:33.074Z,95891
2023-02-28T06:35:58.283Z,95898
2023-02-28T06:39:23.383Z,95902
2023-02-28T06:42:48.565Z,95900
2023-02-28T06:46:13.819Z,95914
2023-02-28T06:49:38.926Z,95922
2023-02-28T06:53:04.116Z,95925
2023-02-28T06:56:29.303Z,95933
2023-02-28T06:59:54.550Z,95934
2023-02-28T07:03:19.777Z,95938
2023-02-28T07:06:44.962Z,95943
2023-02-28T07:10:10.123Z,95941
2023-02-28T07:13:35.269Z,95944
2023-02-28T07:17:00.476Z,95938
2023-02-28T07:20:25.662Z,95939
2023-02-28T07:23:50.824Z,95937
2023-02-28T07:27:16.016Z,95938
2023-02-28T07:30:41.179Z,95935
2023-02-28T07:34:06.358Z,95940
2023-02-28T07:37:31.592Z,95934
2023-02-28T07:40:56.771Z,95938
2023-02-28T07:44:21.987Z,95933
2023-02-28T07:47:47.174Z,95939
2023-02-28T07:51:12.336Z,95939
2023-02-28T07:54:37.523Z,95940
2023-02-28T07:58:02.848Z,95937
2023-02-28T08:01:28.310Z,95941
2023-02-28T08:04:53.195Z,95947
2023-02-28T08:08:18.357Z,95945
2023-02-28T08:11:43.529Z,95945
2023-02-28T08:15:08.690Z,95946
2023-02-28T08:18:33.917Z,95940
2023-02-28T08:21:59.092Z,95943
2023-02-28T08:25:24.274Z,95940
2023-02-28T08:28:49.457Z,95940
2023-02-28T08:32:27.427Z,95944
2023-02-28T08:35:39.814Z,95942
2023-02-28T08:39:04.983Z,95940
2023-02-28T08:42:30.180Z,95940
2023-02-28T08:45:55.470Z,95938
2023-02-28T08:49:20.543Z,95938
2023-02-28T08:52:45.714Z,95941
2023-02-28T08:56:10.882Z,95945
2023-02-28T08:59:36.095Z,95949
2023-02-28T09:03:01.279Z,95949
2023-02-28T09:06:27.535Z,95951
2023-02-28T09:09:51.717Z,95957
2023-02-28T09:13:16.903Z,95961
2023-02-28T09:16:42.125Z,95957
2023-02-28T09:20:07.285Z,95963
2023-02-28T09:23:32.464Z,95969
2023-02-28T09:27:04.762Z,95962
2023-02-28T09:30:22.822Z,95962
2023-02-28T09:33:48.066Z,95962
2023-02-28T09:37:13.240Z,95952
2023-02-28T09:40:38.414Z,95955
2023-02-28T09:44:03.623Z,95956
2023-02-28T09:47:28.789Z,95960
2023-02-28T09:50:53.975Z,95959
2023-02-28T09:54:19.166Z,95956
2023-02-28T09:57:44.280Z,95959
2023-02-28T10:01:09.525Z,95959
2023-02-28T10:04:34.721Z,95971
2023-02-28T10:07:59.801Z,95975
2023-02-28T10:11:25.006Z,95973
2023-02-28T10:14:50.375Z,95979
2023-02-28T10:18:15.516Z,95971
2023-02-28T10:21:40.717Z,95977
2023-02-28T10:25:06.766Z,95977
2023-02-28T10:28:31.090Z,95966
2023-02-28T10:31:56.305Z,95964
2023-02-28T10:35:21.382Z,95966
2023-02-28T10:38:46.569Z,95958
2023-02-28T10:42:11.735Z,95958
2023-02-28T10:45:36.927Z,95957
2023-02-28T10:49:02.055Z,95944
2023-02-28T10:52:27.216Z,95958
2023-02-28T10:55:52.365Z,95953
2023-02-28T10:59:17.530Z,95950
2023-02-28T11:02:42.769Z,95948
2023-02-28T11:06:07.896Z,95945
2023-02-28T11:09:33.049Z,95954
2023-02-28T11:12:59.850Z,95946
2023-02-28T11:16:23.430Z,95950
2023-02-28T11:19:48.539Z,95945
2023-02-28T11:23:13.656Z,95942
2023-02-28T11:26:38.846Z,95942
2023-02-28T11:30:04.021Z,95936
2023-02-28T11:33:29.192Z,95937
2023-02-28T11:36:54.378Z,95928
2023-02-28T11:40:19.522Z,95929
2023-02-28T11:43:44.696Z,95927
2023-02-28T11:47:09.875Z,95931
2023-02-28T11:50:35.047Z,95917
2023-02-28T11:54:00.240Z,95918
2023-02-28T11:57:25.396Z,95915
2023-02-28T12:00:50.583Z,95909
2023-02-28T12:04:15.740Z,95910
2023-02-28T12:07:40.919Z,95914
2023-02-28T12:11:06.195Z,95918
2023-02-28T12:14:31.487Z,95912
2023-02-28T12:17:56.698Z,95908
2023-02-28T12:21:22.002Z,95914
2023-02-28T12:24:47.173Z,95911
2023-02-28T12:28:12.384Z,95908
2023-02-28T12:31:37.625Z,95910
2023-02-28T12:35:02.730Z,95899
2023-02-28T12:38:27.927Z,95903
2023-02-28T12:41:53.126Z,95899
2023-02-28T12:45:18.364Z,95899
2023-02-28T12:48:43.551Z,95897
2023-02-28T12:52:08.715Z,95900
2023-02-28T12:55:33.911Z,95897
2023-02-28T12:58:59.087Z,95894
2023-02-28T13:02:24.324Z,95891
2023-02-28T13:05:49.416Z,95889
2023-02-28T13:09:14.592Z,95883
2023-02-28T13:12:39.733Z,95884
2023-02-28T13:16:05.006Z,95882
2023-02-28T13:19:30.362Z,95881
2023-02-28T13:22:55.620Z,95881
2023-02-28T13:26:20.978Z,95891
2023-02-28T13:29:46.301Z,95886
2023-02-28T13:33:11.722Z,95886
2023-02-28T13:36:37.094Z,95887
2023-02-28T13:40:02.473Z,95882
2023-02-28T13:43:34.654Z,95887
2023-02-28T13:46:53.149Z,95885
2023-02-28T13:50:18.453Z,95881
2023-02-28T13:53:43.789Z,95880
2023-02-28T13:57:09.090Z,95876
2023-02-28T14:00:34.401Z,95875
2023-02-28T14:04:00.054Z,95875
2023-02-28T14:07:25.418Z,95876
2023-02-28T14:10:51.594Z,95872
2023-02-28T14:14:17.176Z,95872
2023-02-28T14:17:42.531Z,95865
2023-02-28T14:21:07.848Z,95860
2023-02-28T14:24:33.185Z,95868
2023-02-28T14:27:58.576Z,95869
2023-02-28T14:31:23.891Z,95868
2023-02-28T15:06:53.807Z,95857
2023-02-28T15:10:19.081Z,95863
2023-02-28T15:13:44.462Z,95863
2023-02-28T15:17:09.747Z,95865
2023-02-28T15:20:35.039Z,95852
2023-02-28T15:24:00.447Z,95858
2023-02-28T15:27:25.817Z,95860
2023-02-28T15:30:51.194Z,95852
2023-02-28T15:34:16.484Z,95860
2023-02-28T15:37:41.848Z,95852
2023-02-28T15:41:07.131Z,95852
2023-02-28T15:44:32.449Z,95852
2023-02-28T15:47:59.912Z,95855
2023-02-28T15:51:23.247Z,95855
2023-02-28T15:54:48.535Z,95860
2023-02-28T15:58:13.903Z,95855
2023-02-28T16:01:39.295Z,95861
2023-02-28T16:05:05.336Z,95862
2023-02-28T16:08:30.599Z,95862
2023-02-28T16:11:55.902Z,95863
2023-02-28T16:15:21.242Z,95861
2023-02-28T16:18:46.579Z,95861
2023-02-28T16:22:11.951Z,95857
2023-02-28T16:25:38.027Z,95859
2023-02-28T16:29:03.347Z,95863
2023-02-28T16:32:28.793Z,95868
2023-02-28T16:35:54.111Z,95873
2023-02-28T16:39:19.387Z,95874
2023-02-28T16:42:45.058Z,95881
2023-02-28T16:46:10.383Z,95881
2023-02-28T16:49:36.613Z,95886
2023-02-28T16:53:01.904Z,95892
2023-02-28T16:56:27.220Z,95896
2023-02-28T16:59:52.476Z,95890
2023-02-28T17:03:23.869Z,95890
2023-02-28T17:06:43.103Z,95887
2023-02-28T17:10:08.348Z,95905
2023-02-28T17:13:33.647Z,95902
2023-02-28T17:16:58.936Z,95910
2023-02-28T17:20:24.238Z,95906
2023-02-28T17:23:49.562Z,95913
2023-02-28T17:27:14.815Z,95910
2023-02-28T17:30:40.122Z,95913
2023-02-28T17:34:05.407Z,95912
2023-02-28T17:37:30.735Z,95917
2023-02-28T17:40:56.060Z,95911
2023-02-28T17:44:21.295Z,95918
2023-02-28T17:47:46.581Z,95918
2023-02-28T17:51:11.878Z,95915
2023-02-28T17:54:37.181Z,95920
2023-02-28T17:58:02.536Z,95925
2023-02-28T18:01:27.930Z,95929
2023-02-28T18:04:53.228Z,95931
2023-02-28T18:08:18.611Z,95930
2023-02-28T18:11:43.996Z,95931
2023-02-28T18:15:09.355Z,95936
2023-02-28T18:18:34.711Z,95941
2023-02-28T18:22:00.126Z,95943
2023-02-28T18:25:25.500Z,95935
2023-02-28T18:28:50.866Z,95940
2023-02-28T18:32:16.302Z,95935
2023-02-28T18:35:41.697Z,95935
2023-02-28T18:39:06.930Z,95926
2023-02-28T18:42:32.246Z,95926
2023-02-28T18:45:57.561Z,95921
2023-02-28T18:49:22.936Z,95917
2023-02-28T18:52:48.193Z,95919
2023-02-28T18:56:13.520Z,95926
2023-02-28T18:59:38.803Z,95920
2023-02-28T19:03:04.167Z,95916
2023-02-28T19:06:30.128Z,95914
2023-02-28T19:09:54.783Z,95911
2023-02-28T19:13:20.099Z,95910
2023-02-28T19:16:45.420Z,95912
2023-02-28T19:20:10.725Z,95914
2023-02-28T19:23:36.068Z,95924
2023-02-28T19:27:01.345Z,95919
2023-02-28T19:30:26.674Z,95909
2023-02-28T19:33:51.982Z,95906
2023-02-28T19:37:17.259Z,95906
2023-02-28T19:40:42.581Z,95910
2023-02-28T19:44:07.824Z,95908
2023-02-28T19:47:33.115Z,95912
2023-02-28T19:50:58.489Z,95913
2023-02-28T19:54:23.705Z,95916
2023-02-28T19:57:49.037Z,95917
2023-02-28T20:01:14.348Z,95913
2023-02-28T20:04:39.746Z,95912
2023-02-28T20:08:04.957Z,95910
2023-02-28T20:11:30.314Z,95914
2023-02-28T20:14:55.654Z,95912
2023-02-28T20:18:20.893Z,95916
2023-02-28T20:21:46.623Z,95916
2023-02-28T20:25:12.469Z,95921
2023-02-28T20:28:37.776Z,95929
2023-02-28T20:32:03.196Z,95928
2023-02-28T20:35:28.483Z,95929
2023-02-28T20:38:53.757Z,95926
2023-02-28T20:42:19.042Z,95923
2023-02-28T20:45:44.373Z,95927
2023-02-28T20:49:09.676Z,95925
2023-02-28T20:52:34.986Z,95928
2023-02-28T20:56:00.274Z,95926
2023-02-28T20:59:25.544Z,95914
2023-02-28T21:02:50.736Z,95923
2023-02-28T21:06:15.893Z,95926
2023-02-28T21:09:41.033Z,95923
2023-02-28T21:13:06.187Z,95918
2023-02-28T21:16:31.622Z,95921
2023-02-28T21:19:56.548Z,95919
2023-02-28T21:23:21.905Z,95921
2023-02-28T21:26:46.897Z,95923
2023-02-28T21:30:12.069Z,95922
2023-02-28T21:33:37.305Z,95923
2023-02-28T21:37:03.084Z,95924
2023-02-28T21:40:28.238Z,95918
2023-02-28T21:43:53.380Z,95912
2023-02-28T21:47:18.530Z,95910
2023-02-28T21:50:43.732Z,95904
2023-02-28T21:54:08.895Z,95914
2023-02-28T21:57:34.106Z,95914
2023-02-28T22:00:59.216Z,95921
2023-02-28T22:04:24.400Z,95914
2023-02-28T22:07:49.530Z,95918
2023-02-28T22:11:14.685Z,95921
2023-02-28T22:14:39.877Z,95920
2023-02-28T22:18:04.994Z,95922
2023-02-28T22:21:30.216Z,95925
2023-02-28T22:24:55.373Z,95923
2023-02-28T22:28:20.560Z,95931
2023-02-28T22:31:45.845Z,95933
2023-02-28T22:35:10.924Z,95942
2023-02-28T22:38:36.083Z,95939
2023-02-28T22:42:01.247Z,95951
2023-02-28T22:45:26.409Z,95954
2023-02-28T22:48:51.581Z,95946
2023-02-28T22:52:16.728Z,95947
2023-02-28T22:55:41.873Z,95959
2023-02-28T22:59:07.051Z,95962
2023-02-28T23:02:32.198Z,95956
2023-02-28T23:05:57.397Z,95949
2023-02-28T23:09:22.544Z,95944
2023-02-28T23:12:47.792Z,95938
2023-02-28T23:16:12.973Z,95934
2023-02-28T23:19:38.076Z,95931
2023-02-28T23:23:03.264Z,95936
2023-02-28T23:26:28.559Z,95931
2023-02-28T23:29:53.540Z,95936
2023-02-28T23:33:18.730Z,95929
2023-02-28T23:36:43.912Z,95932
2023-02-28T23:40:09.073Z,95938
2023-02-28T23:43:34.240Z,95934
2023-02-28T23:46:59.415Z,95934
2023-02-28T23:50:24.576Z,95932
2023-02-28T23:53:49.762Z,95927
2023-02-28T23:57:14.961Z,95920
